Time;durP1;ratioP1;P1;durP2;ratioP2;P2;SDS_P1;SDS_P2;PMS_P1;PMS_P2;Temp;Humidity;BMP_temperature;BMP_pressure;BME280_temperature;BME280_humidity;BME280_pressure;Samples;Min_cycle;Max_cycle;Signal;HPM_P1;HPM_P2
2023/07/11 00:00:56;;;;;;;3.80;3.60;;;;;;;;;;4722732;30;20074;-78
2023/07/11 00:03:23;;;;;;;4.28;3.92;;;;;;;;;;4712736;30;20060;-77
2023/07/11 00:06:04;;;;;;;4.45;4.05;;;;;;;;;;4718780;30;20053;-78
2023/07/11 00:08:32;;;;;;;4.13;3.83;;;;;;;;;;4719471;30;20064;-77
2023/07/11 00:11:00;;;;;;;4.40;4.10;;;;;;;;;;4724434;30;20471;-77
2023/07/11 00:13:27;;;;;;;4.78;3.97;;;;;;;;;;4729203;30;20053;-78
2023/07/11 00:15:59;;;;;;;4.22;3.92;;;;;;;;;;4713125;30;20057;-77
2023/07/11 00:18:27;;;;;;;4.38;3.92;;;;;;;;;;4722015;30;20059;-78
2023/07/11 00:20:55;;;;;;;4.47;4.15;;;;;;;;;;4722851;30;20108;-78
2023/07/11 00:23:24;;;;;;;4.28;3.97;;;;;;;;;;4713481;30;20048;-78
2023/07/11 00:25:51;;;;;;;3.85;3.63;;;;;;;;;;4716438;30;20091;-77
2023/07/11 00:28:19;;;;;;;4.68;4.28;;;;;;;;;;4722121;30;20131;-77
2023/07/11 00:30:48;;;;;;;4.93;4.18;;;;;;;;;;4725554;30;20147;-78
2023/07/11 00:33:16;;;;;;;4.13;3.92;;;;;;;;;;4714907;30;20239;-77
2023/07/11 00:35:47;;;;;;;4.53;4.13;;;;;;;;;;4712289;30;20452;-77
2023/07/11 00:38:15;;;;;;;4.43;4.00;;;;;;;;;;4714889;30;20057;-77
2023/07/11 00:40:43;;;;;;;4.20;3.90;;;;;;;;;;4714033;30;20852;-77
2023/07/11 00:43:12;;;;;;;4.00;3.70;;;;;;;;;;4717429;30;20053;-77
2023/07/11 00:45:58;;;;;;;3.95;3.65;;;;;;;;;;4718447;30;20687;-77
2023/07/11 00:48:26;;;;;;;4.05;3.78;;;;;;;;;;4715031;30;20053;-77
2023/07/11 00:50:54;;;;;;;4.20;3.90;;;;;;;;;;4722631;30;20135;-78
2023/07/11 00:53:22;;;;;;;4.60;4.20;;;;;;;;;;4717112;30;20076;-77
2023/07/11 00:55:49;;;;;;;3.88;3.67;;;;;;;;;;4717055;30;20138;-77
2023/07/11 00:58:18;;;;;;;4.43;4.13;;;;;;;;;;4724283;30;20072;-77
2023/07/11 01:00:47;;;;;;;4.32;4.03;;;;;;;;;;4726891;30;20061;-77
2023/07/11 01:03:15;;;;;;;4.38;4.03;;;;;;;;;;4718618;30;20056;-77
2023/07/11 01:05:43;;;;;;;5.20;3.80;;;;;;;;;;4719947;30;20336;-77
2023/07/11 01:08:10;;;;;;;4.35;4.05;;;;;;;;;;4718003;30;20053;-77
2023/07/11 01:10:38;;;;;;;4.30;3.90;;;;;;;;;;4722952;30;20064;-77
2023/07/11 01:13:05;;;;;;;4.65;4.35;;;;;;;;;;4719672;30;20346;-77
2023/07/11 01:15:33;;;;;;;4.22;3.92;;;;;;;;;;4719515;30;20323;-77
2023/07/11 01:18:01;;;;;;;4.18;3.88;;;;;;;;;;4721751;30;20168;-78
2023/07/11 01:20:29;;;;;;;4.35;4.05;;;;;;;;;;4729617;30;20084;-77
2023/07/11 01:22:57;;;;;;;3.95;3.65;;;;;;;;;;4721886;30;20119;-77
2023/07/11 01:25:24;;;;;;;4.50;4.20;;;;;;;;;;4727562;30;20065;-77
2023/07/11 01:27:52;;;;;;;4.40;4.00;;;;;;;;;;4728490;30;20690;-77
2023/07/11 01:30:20;;;;;;;4.43;4.10;;;;;;;;;;4729887;30;20548;-77
2023/07/11 01:32:48;;;;;;;4.15;3.85;;;;;;;;;;4725990;30;20067;-77
2023/07/11 01:35:17;;;;;;;4.95;4.55;;;;;;;;;;4725155;30;20057;-76
2023/07/11 01:37:45;;;;;;;4.88;4.50;;;;;;;;;;4727494;30;20048;-76
2023/07/11 01:40:12;;;;;;;4.93;4.53;;;;;;;;;;4717623;30;20068;-76
2023/07/11 01:42:40;;;;;;;5.00;4.60;;;;;;;;;;4725130;30;20048;-76
2023/07/11 01:45:09;;;;;;;4.57;4.20;;;;;;;;;;4720817;30;20108;-76
2023/07/11 01:47:37;;;;;;;4.05;3.70;;;;;;;;;;4725516;30;20053;-76
2023/07/11 01:50:05;;;;;;;4.13;3.85;;;;;;;;;;4723422;30;20049;-76
2023/07/11 01:52:32;;;;;;;4.90;4.28;;;;;;;;;;4724837;30;20049;-76
2023/07/11 01:55:00;;;;;;;5.07;4.60;;;;;;;;;;4717406;30;20079;-76
2023/07/11 01:57:27;;;;;;;4.43;4.13;;;;;;;;;;4726544;30;20119;-76
2023/07/11 01:59:55;;;;;;;4.40;4.10;;;;;;;;;;4724206;30;20057;-76
2023/07/11 02:02:24;;;;;;;4.38;4.07;;;;;;;;;;4721734;30;20087;-76
2023/07/11 02:04:53;;;;;;;4.93;4.32;;;;;;;;;;4725437;30;20053;-76
2023/07/11 02:07:20;;;;;;;4.30;4.00;;;;;;;;;;4722604;30;20076;-76
2023/07/11 02:09:47;;;;;;;3.95;3.70;;;;;;;;;;4721595;30;20148;-76
2023/07/11 02:12:15;;;;;;;4.05;3.75;;;;;;;;;;4725861;30;20064;-76
2023/07/11 02:14:42;;;;;;;5.00;4.60;;;;;;;;;;4723694;30;20157;-76
2023/07/11 02:17:14;;;;;;;4.25;3.92;;;;;;;;;;4727678;30;20488;-76
2023/07/11 02:19:44;;;;;;;4.22;3.92;;;;;;;;;;4727632;30;20072;-76
2023/07/11 02:22:12;;;;;;;4.25;3.95;;;;;;;;;;4722020;30;20095;-76
2023/07/11 02:24:40;;;;;;;4.43;4.13;;;;;;;;;;4734080;30;20504;-77
2023/07/11 02:27:08;;;;;;;4.70;4.32;;;;;;;;;;4725542;30;20140;-76
2023/07/11 02:29:36;;;;;;;4.78;4.45;;;;;;;;;;4728462;30;20068;-76
2023/07/11 02:32:04;;;;;;;4.97;4.55;;;;;;;;;;4725240;30;20312;-76
2023/07/11 02:34:31;;;;;;;4.32;3.97;;;;;;;;;;4723822;30;20588;-76
2023/07/11 02:36:58;;;;;;;4.20;3.90;;;;;;;;;;4726731;30;20056;-76
2023/07/11 02:39:26;;;;;;;4.75;4.35;;;;;;;;;;4727984;30;20061;-76
2023/07/11 02:41:53;;;;;;;4.93;4.50;;;;;;;;;;4722259;30;20553;-76
2023/07/11 02:44:21;;;;;;;4.97;4.57;;;;;;;;;;4721325;30;20071;-76
2023/07/11 02:46:48;;;;;;;4.95;4.55;;;;;;;;;;4719068;30;20087;-76
2023/07/11 02:49:16;;;;;;;5.22;4.72;;;;;;;;;;4727229;30;20072;-76
2023/07/11 02:51:43;;;;;;;5.20;4.55;;;;;;;;;;4724225;30;20071;-77
2023/07/11 02:54:11;;;;;;;5.30;4.90;;;;;;;;;;4721189;30;20122;-76
2023/07/11 02:56:38;;;;;;;5.43;4.93;;;;;;;;;;4727158;30;20052;-76
2023/07/11 02:59:05;;;;;;;5.15;4.65;;;;;;;;;;4723460;30;20103;-77
2023/07/11 03:01:34;;;;;;;5.25;4.78;;;;;;;;;;4728836;30;20049;-76
2023/07/11 03:04:02;;;;;;;5.97;4.35;;;;;;;;;;4724873;30;20250;-76
2023/07/11 03:06:30;;;;;;;5.05;4.55;;;;;;;;;;4723699;30;20103;-76
2023/07/11 03:08:57;;;;;;;4.65;4.30;;;;;;;;;;4726491;30;20143;-77
2023/07/11 03:11:25;;;;;;;4.90;4.50;;;;;;;;;;4725926;30;20068;-76
2023/07/11 03:13:52;;;;;;;5.25;4.63;;;;;;;;;;4720186;30;20504;-77
2023/07/11 03:16:19;;;;;;;5.30;4.90;;;;;;;;;;4721299;30;20512;-76
2023/07/11 03:18:47;;;;;;;4.95;4.65;;;;;;;;;;4722862;30;20124;-76
2023/07/11 03:21:14;;;;;;;5.20;4.70;;;;;;;;;;4724968;30;20052;-76
2023/07/11 03:23:41;;;;;;;4.90;4.55;;;;;;;;;;4722180;30;20091;-76
2023/07/11 03:26:09;;;;;;;5.03;4.63;;;;;;;;;;4726732;30;20080;-76
2023/07/11 03:28:36;;;;;;;5.40;4.90;;;;;;;;;;4724125;30;20115;-76
2023/07/11 03:31:04;;;;;;;4.75;4.45;;;;;;;;;;4723704;30;20060;-76
2023/07/11 03:33:32;;;;;;;5.43;4.88;;;;;;;;;;4720513;30;20053;-76
2023/07/11 03:36:00;;;;;;;4.88;4.50;;;;;;;;;;4719806;30;20083;-76
2023/07/11 03:38:27;;;;;;;4.57;4.28;;;;;;;;;;4727432;30;20488;-76
2023/07/11 03:40:55;;;;;;;5.25;4.85;;;;;;;;;;4717947;30;20532;-76
2023/07/11 03:43:22;;;;;;;5.20;4.80;;;;;;;;;;4722850;30;20110;-76
2023/07/11 03:45:50;;;;;;;5.78;5.38;;;;;;;;;;4765481;24;20183;-85
2023/07/11 03:48:18;;;;;;;5.28;4.88;;;;;;;;;;4740015;30;20055;-86
2023/07/11 03:50:45;;;;;;;5.10;4.70;;;;;;;;;;4744684;30;20393;-86
2023/07/11 03:53:13;;;;;;;5.10;4.60;;;;;;;;;;4742760;30;20132;-86
2023/07/11 03:55:43;;;;;;;5.30;4.90;;;;;;;;;;4727163;30;20423;-86
2023/07/11 03:58:11;;;;;;;4.95;4.60;;;;;;;;;;4720815;30;20144;-86
2023/07/11 04:00:39;;;;;;;4.82;4.43;;;;;;;;;;4726611;30;20143;-85
2023/07/11 04:03:13;;;;;;;7.95;5.30;;;;;;;;;;4726967;30;20559;-85
2023/07/11 04:05:41;;;;;;;5.13;4.72;;;;;;;;;;4727156;30;20192;-86
2023/07/11 04:08:09;;;;;;;5.32;4.82;;;;;;;;;;4729448;30;20571;-86
2023/07/11 04:10:36;;;;;;;5.03;4.65;;;;;;;;;;4729375;30;20052;-86
2023/07/11 04:13:08;;;;;;;5.28;4.88;;;;;;;;;;4727336;30;20087;-85
2023/07/11 04:15:59;;;;;;;5.10;4.43;;;;;;;;;;4725644;30;20045;-86
2023/07/11 04:18:27;;;;;;;5.20;4.78;;;;;;;;;;4725420;30;20052;-85
2023/07/11 04:21:03;;;;;;;5.13;4.72;;;;;;;;;;4727724;30;20416;-85
2023/07/11 04:23:33;;;;;;;4.97;4.50;;;;;;;;;;4722639;30;20494;-86
2023/07/11 04:26:08;;;;;;;5.50;5.10;;;;;;;;;;4728142;30;20256;-87
2023/07/11 04:28:35;;;;;;;6.20;4.97;;;;;;;;;;4725710;30;20131;-86
2023/07/11 04:31:03;;;;;;;9.88;5.25;;;;;;;;;;4726798;30;20135;-86
2023/07/11 04:33:30;;;;;;;5.63;5.20;;;;;;;;;;4720766;30;20126;-86
2023/07/11 04:36:11;;;;;;;5.18;4.78;;;;;;;;;;4728095;30;20056;-86
2023/07/11 04:38:39;;;;;;;5.80;5.30;;;;;;;;;;4724757;30;20052;-86
2023/07/11 04:41:07;;;;;;;5.47;5.07;;;;;;;;;;4724537;30;20056;-86
2023/07/11 04:43:34;;;;;;;5.53;5.03;;;;;;;;;;4728117;30;20082;-86
2023/07/11 04:46:05;;;;;;;5.35;4.95;;;;;;;;;;4724238;30;20064;-86
2023/07/11 04:48:34;;;;;;;5.28;4.88;;;;;;;;;;4726441;30;20072;-86
2023/07/11 04:51:04;;;;;;;5.45;5.00;;;;;;;;;;4726811;30;20123;-86
2023/07/11 04:53:32;;;;;;;5.10;4.72;;;;;;;;;;4721650;30;20064;-85
2023/07/11 04:56:05;;;;;;;4.75;4.45;;;;;;;;;;4725719;30;20440;-86
2023/07/11 04:58:34;;;;;;;5.03;4.57;;;;;;;;;;4727935;30;20083;-86
2023/07/11 05:01:02;;;;;;;4.93;4.63;;;;;;;;;;4728141;30;20060;-85
2023/07/11 05:03:29;;;;;;;5.90;4.78;;;;;;;;;;4726124;30;20072;-85
2023/07/11 05:05:57;;;;;;;5.55;5.15;;;;;;;;;;4725028;30;20171;-85
2023/07/11 05:08:25;;;;;;;5.45;5.05;;;;;;;;;;4725797;30;20053;-85
2023/07/11 05:11:02;;;;;;;5.40;4.97;;;;;;;;;;4725494;30;20076;-85
2023/07/11 05:13:30;;;;;;;7.18;5.05;;;;;;;;;;4737667;30;20138;-85
2023/07/11 05:16:02;;;;;;;5.20;4.80;;;;;;;;;;4723995;30;20060;-86
2023/07/11 05:18:30;;;;;;;4.97;4.53;;;;;;;;;;4723423;30;20056;-86
2023/07/11 05:20:58;;;;;;;5.72;5.03;;;;;;;;;;4726555;30;20068;-85
2023/07/11 05:23:27;;;;;;;4.72;4.43;;;;;;;;;;4724556;30;20428;-86
2023/07/11 05:25:55;;;;;;;5.43;4.93;;;;;;;;;;4728491;30;20106;-85
2023/07/11 05:28:27;;;;;;;5.15;4.70;;;;;;;;;;4741604;30;20052;-86
2023/07/11 05:30:55;;;;;;;5.25;4.85;;;;;;;;;;4725605;30;20369;-86
2023/07/11 05:33:24;;;;;;;5.57;5.18;;;;;;;;;;4724351;30;20122;-86
2023/07/11 05:36:05;;;;;;;5.28;4.88;;;;;;;;;;4724674;30;20068;-86
2023/07/11 05:38:33;;;;;;;5.40;5.00;;;;;;;;;;4728258;30;20052;-86
2023/07/11 05:41:00;;;;;;;5.55;5.15;;;;;;;;;;4725543;30;20523;-86
2023/07/11 05:43:28;;;;;;;5.38;4.95;;;;;;;;;;4727482;30;20103;-86
2023/07/11 05:45:59;;;;;;;5.40;4.93;;;;;;;;;;4726398;30;20075;-85
2023/07/11 05:48:27;;;;;;;6.05;5.53;;;;;;;;;;4727015;30;20500;-86
2023/07/11 05:51:15;;;;;;;5.72;5.25;;;;;;;;;;4727129;30;20611;-86
2023/07/11 05:53:43;;;;;;;5.60;5.10;;;;;;;;;;4726543;30;20578;-86
2023/07/11 05:56:10;;;;;;;5.75;5.13;;;;;;;;;;4723595;30;20048;-86
2023/07/11 05:58:37;;;;;;;5.97;5.47;;;;;;;;;;4724585;30;20084;-86
2023/07/11 06:01:07;;;;;;;6.30;5.70;;;;;;;;;;4730892;30;20134;-85
2023/07/11 06:03:34;;;;;;;5.60;5.20;;;;;;;;;;4728461;30;20056;-86
2023/07/11 06:06:02;;;;;;;5.82;5.35;;;;;;;;;;4729639;30;20048;-87
2023/07/11 06:08:31;;;;;;;6.80;6.30;;;;;;;;;;4728197;30;20064;-86
2023/07/11 06:11:02;;;;;;;7.25;6.57;;;;;;;;;;4727616;30;20060;-86
2023/07/11 06:13:30;;;;;;;6.55;6.05;;;;;;;;;;4729618;30;20059;-86
2023/07/11 06:16:07;;;;;;;6.05;5.65;;;;;;;;;;4728195;30;20045;-86
2023/07/11 06:18:39;;;;;;;6.53;5.93;;;;;;;;;;4727523;30;20067;-86
2023/07/11 06:21:07;;;;;;;6.75;6.15;;;;;;;;;;4729954;30;20528;-85
2023/07/11 06:23:35;;;;;;;6.35;5.85;;;;;;;;;;4731182;30;20107;-86
2023/07/11 06:26:04;;;;;;;5.90;5.50;;;;;;;;;;4727891;30;20052;-86
2023/07/11 06:28:32;;;;;;;7.78;6.03;;;;;;;;;;4724673;30;20114;-86
2023/07/11 06:31:03;;;;;;;6.63;6.10;;;;;;;;;;4730515;30;20110;-86
2023/07/11 06:33:34;;;;;;;6.55;5.93;;;;;;;;;;4726758;30;20057;-85
2023/07/11 06:36:03;;;;;;;6.13;5.63;;;;;;;;;;4725171;30;20504;-85
2023/07/11 06:38:30;;;;;;;5.95;5.50;;;;;;;;;;4726330;30;20052;-85
2023/07/11 06:41:00;;;;;;;5.57;5.15;;;;;;;;;;4726781;30;20065;-85
2023/07/11 06:43:28;;;;;;;5.57;5.18;;;;;;;;;;4724400;30;20575;-85
2023/07/11 06:45:57;;;;;;;5.90;5.30;;;;;;;;;;4726573;30;20093;-86
2023/07/11 06:48:25;;;;;;;5.47;5.07;;;;;;;;;;4731180;30;20424;-86
2023/07/11 06:50:55;;;;;;;6.60;5.57;;;;;;;;;;4721193;30;20146;-86
2023/07/11 06:53:26;;;;;;;5.97;5.47;;;;;;;;;;4717226;30;20107;-85
2023/07/11 06:55:54;;;;;;;5.95;5.45;;;;;;;;;;4725295;30;20066;-85
2023/07/11 06:58:21;;;;;;;5.68;5.10;;;;;;;;;;4728659;30;20511;-86
2023/07/11 07:00:53;;;;;;;5.68;5.18;;;;;;;;;;4728740;30;20527;-85
2023/07/11 07:03:20;;;;;;;6.15;5.57;;;;;;;;;;4728156;30;20056;-85
2023/07/11 07:05:56;;;;;;;5.82;5.32;;;;;;;;;;4726153;30;20044;-86
2023/07/11 07:08:24;;;;;;;5.47;4.97;;;;;;;;;;4728805;30;20165;-85
2023/07/11 07:10:52;;;;;;;6.28;5.40;;;;;;;;;;4725910;30;20049;-85
2023/07/11 07:13:20;;;;;;;5.03;4.63;;;;;;;;;;4724904;30;20049;-87
2023/07/11 07:15:56;;;;;;;5.18;4.78;;;;;;;;;;4722162;30;20059;-86
2023/07/11 07:18:24;;;;;;;5.03;4.72;;;;;;;;;;4725021;30;20551;-86
2023/07/11 07:20:52;;;;;;;5.22;4.90;;;;;;;;;;4725378;30;20045;-86
2023/07/11 07:23:25;;;;;;;5.57;5.18;;;;;;;;;;4720971;30;20061;-85
2023/07/11 07:25:55;;;;;;;5.78;5.20;;;;;;;;;;4723903;30;20067;-86
2023/07/11 07:28:22;;;;;;;12.07;5.40;;;;;;;;;;4724362;30;20057;-86
2023/07/11 07:30:53;;;;;;;10.23;5.28;;;;;;;;;;4726301;30;20047;-85
2023/07/11 07:33:25;;;;;;;6.68;5.25;;;;;;;;;;4724747;30;20053;-87
2023/07/11 07:35:57;;;;;;;7.78;6.18;;;;;;;;;;4722855;30;20128;-87
2023/07/11 07:38:27;;;;;;;9.95;5.85;;;;;;;;;;4724464;30;20065;-86
2023/07/11 07:41:00;;;;;;;16.73;6.15;;;;;;;;;;4728632;30;20115;-88
2023/07/11 07:43:29;;;;;;;6.07;5.47;;;;;;;;;;4723568;30;20057;-86
2023/07/11 07:46:00;;;;;;;5.90;5.32;;;;;;;;;;4726881;30;20134;-85
2023/07/11 07:48:28;;;;;;;6.47;5.30;;;;;;;;;;4729327;30;20532;-85
2023/07/11 07:51:03;;;;;;;5.82;5.32;;;;;;;;;;4725041;30;20480;-86
2023/07/11 07:53:31;;;;;;;5.78;5.28;;;;;;;;;;4724914;30;20072;-85
2023/07/11 07:56:05;;;;;;;6.00;5.43;;;;;;;;;;4725985;30;20057;-86
2023/07/11 07:58:34;;;;;;;5.65;5.18;;;;;;;;;;4722548;30;20049;-86
2023/07/11 08:01:05;;;;;;;5.10;4.72;;;;;;;;;;4725424;30;20147;-86
2023/07/11 08:03:36;;;;;;;6.07;5.43;;;;;;;;;;4725280;30;20055;-86
2023/07/11 08:06:03;;;;;;;5.32;4.93;;;;;;;;;;4726759;30;20057;-87
2023/07/11 08:08:43;;;;;;;5.78;5.10;;;;;;;;;;4728379;30;20061;-86
2023/07/11 08:11:11;;;;;;;4.68;4.32;;;;;;;;;;4727240;30;20045;-86
2023/07/11 08:13:39;;;;;;;4.40;4.10;;;;;;;;;;4750342;30;20041;-85
2023/07/11 08:16:09;;;;;;;4.57;4.28;;;;;;;;;;4736313;30;20731;-86
2023/07/11 08:18:55;;;;;;;5.20;4.70;;;;;;;;;;4721776;30;20297;-86
2023/07/11 08:21:23;;;;;;;5.07;4.68;;;;;;;;;;4726106;30;20149;-86
2023/07/11 08:23:50;;;;;;;4.95;4.55;;;;;;;;;;4726741;30;20048;-86
2023/07/11 08:26:18;;;;;;;6.18;4.43;;;;;;;;;;4725899;30;20087;-85
2023/07/11 08:28:45;;;;;;;4.55;4.15;;;;;;;;;;4730127;30;20060;-85
2023/07/11 08:31:12;;;;;;;4.68;4.28;;;;;;;;;;4735179;30;20667;-85
2023/07/11 08:33:40;;;;;;;4.32;4.13;;;;;;;;;;4722789;30;20532;-84
2023/07/11 08:36:08;;;;;;;4.57;4.13;;;;;;;;;;4730545;30;20056;-85
2023/07/11 08:38:35;;;;;;;4.50;4.03;;;;;;;;;;4722677;30;20092;-85
2023/07/11 08:41:29;;;;;;;3.92;3.70;;;;;;;;;;4726916;30;20088;-85
2023/07/11 08:43:59;;;;;;;4.28;3.97;;;;;;;;;;4735917;30;20181;-85
2023/07/11 08:46:27;;;;;;;4.32;3.95;;;;;;;;;;4737660;30;20076;-86
2023/07/11 08:49:00;;;;;;;4.18;3.47;;;;;;;;;;4725696;30;20130;-85
2023/07/11 08:51:27;;;;;;;4.38;3.83;;;;;;;;;;4728468;30;20057;-85
2023/07/11 08:54:01;;;;;;;3.83;3.53;;;;;;;;;;4728983;30;20044;-85
2023/07/11 08:56:40;;;;;;;4.05;3.75;;;;;;;;;;4720967;30;20053;-86
2023/07/11 08:59:14;;;;;;;4.27;3.87;;;;;;;;;;4728387;30;20146;-85
2023/07/11 09:01:44;;;;;;;4.30;4.00;;;;;;;;;;4728527;30;21173;-85
2023/07/11 09:04:15;;;;;;;5.30;3.78;;;;;;;;;;4726171;30;20072;-85
2023/07/11 09:06:49;;;;;;;4.68;4.28;;;;;;;;;;4726707;30;20065;-86
2023/07/11 09:09:17;;;;;;;3.85;3.65;;;;;;;;;;4727751;30;20057;-85
2023/07/11 09:12:17;;;;;;;3.88;3.58;;;;;;;;;;4724584;30;20600;-85
2023/07/11 09:14:50;;;;;;;4.03;3.72;;;;;;;;;;4726100;30;20471;-85
2023/07/11 09:17:35;;;;;;;4.00;3.72;;;;;;;;;;4725855;30;20091;-85
2023/07/11 09:20:12;;;;;;;3.72;3.42;;;;;;;;;;4729743;30;20088;-85
2023/07/11 09:22:58;;;;;;;4.40;3.58;;;;;;;;;;4725225;30;20056;-85
2023/07/11 09:25:32;;;;;;;5.55;3.90;;;;;;;;;;4742644;30;20570;-85
2023/07/11 09:28:03;;;;;;;3.78;3.47;;;;;;;;;;4731623;30;20048;-85
2023/07/11 09:30:32;;;;;;;3.78;3.50;;;;;;;;;;4729252;30;20423;-85
2023/07/11 09:33:10;;;;;;;3.70;3.40;;;;;;;;;;4730245;30;20056;-84
2023/07/11 09:35:38;;;;;;;3.45;3.15;;;;;;;;;;4724327;30;20057;-77
2023/07/11 09:38:08;;;;;;;3.90;3.60;;;;;;;;;;4730492;30;20139;-76
2023/07/11 09:40:37;;;;;;;3.63;3.35;;;;;;;;;;4727962;30;20458;-77
2023/07/11 09:43:05;;;;;;;4.18;3.78;;;;;;;;;;4728735;30;20138;-77
2023/07/11 09:45:35;;;;;;;3.40;3.20;;;;;;;;;;4719342;30;20064;-77
2023/07/11 09:48:13;;;;;;;3.40;3.20;;;;;;;;;;4730527;30;20549;-77
2023/07/11 09:50:59;;;;;;;3.33;3.03;;;;;;;;;;4729906;30;20048;-77
2023/07/11 09:53:31;;;;;;;3.20;2.90;;;;;;;;;;4728497;30;20052;-77
2023/07/11 09:56:03;;;;;;;3.17;2.97;;;;;;;;;;4738392;30;20060;-77
2023/07/11 09:58:40;;;;;;;3.50;3.20;;;;;;;;;;4734794;30;20060;-77
2023/07/11 10:01:33;;;;;;;3.20;3.00;;;;;;;;;;4749641;24;20065;-89
2023/07/11 10:04:49;;;;;;;4.57;3.20;;;;;;;;;;4757434;30;20060;-88
2023/07/11 10:07:47;;;;;;;3.13;2.92;;;;;;;;;;4736373;30;20074;-87
2023/07/11 10:11:00;;;;;;;2.90;2.70;;;;;;;;;;4751047;30;20048;-88
2023/07/11 10:13:44;;;;;;;3.28;2.97;;;;;;;;;;4748169;30;20063;-90
2023/07/11 10:16:32;;;;;;;3.63;3.00;;;;;;;;;;4742220;30;20060;-88
2023/07/11 10:19:03;;;;;;;4.90;3.53;;;;;;;;;;4750462;30;20055;-90
2023/07/11 10:21:53;;;;;;;3.67;3.38;;;;;;;;;;4738010;30;20048;-89
2023/07/11 10:24:48;;;;;;;3.97;3.58;;;;;;;;;;4749624;30;20072;-87
2023/07/11 10:27:44;;;;;;;3.03;2.83;;;;;;;;;;4750038;30;20062;-89
2023/07/11 10:30:25;;;;;;;3.42;3.20;;;;;;;;;;4751994;30;20525;-88
2023/07/11 10:33:20;;;;;;;3.97;3.67;;;;;;;;;;4764842;30;20458;-88
2023/07/11 10:36:24;;;;;;;3.65;3.45;;;;;;;;;;4751542;30;20048;-89
2023/07/11 10:39:10;;;;;;;3.00;2.80;;;;;;;;;;4749863;30;20052;-88
2023/07/11 10:42:02;;;;;;;3.30;3.10;;;;;;;;;;4749573;30;20060;-89
2023/07/11 10:44:49;;;;;;;4.40;3.38;;;;;;;;;;4751187;30;20059;-88
2023/07/11 10:47:44;;;;;;;3.70;3.40;;;;;;;;;;4747256;30;20432;-88
2023/07/11 10:51:09;;;;;;;3.63;3.40;;;;;;;;;;4749562;30;20048;-89
2023/07/11 10:54:03;;;;;;;3.72;3.47;;;;;;;;;;4724950;30;20053;-90
2023/07/11 10:56:37;;;;;;;4.28;3.50;;;;;;;;;;4750594;30;20056;-88
2023/07/11 10:59:13;;;;;;;3.75;3.45;;;;;;;;;;4752341;30;20131;-88
2023/07/11 11:01:56;;;;;;;4.07;3.78;;;;;;;;;;4751426;30;20088;-88
2023/07/11 11:05:02;;;;;;;;;;;;;;;;;;;;;
2023/07/11 11:07:40;;;;;;;3.58;3.28;;;;;;;;;;4749740;30;20523;-88
2023/07/11 11:10:12;;;;;;;4.43;3.45;;;;;;;;;;4747247;30;20064;-87
2023/07/11 11:12:52;;;;;;;3.60;3.30;;;;;;;;;;4749843;30;20056;-88
2023/07/11 11:15:38;;;;;;;3.40;3.20;;;;;;;;;;4750617;30;20052;-87
2023/07/11 11:18:27;;;;;;;3.55;3.25;;;;;;;;;;4746250;30;20091;-88
2023/07/11 11:21:08;;;;;;;3.58;3.30;;;;;;;;;;4746327;30;20080;-89
2023/07/11 11:27:13;;;;;;;4.97;3.40;;;;;;;;;;4745097;30;20134;-89
2023/07/11 11:29:58;;;;;;;3.50;3.20;;;;;;;;;;4749402;30;20521;-89
2023/07/11 11:32:48;;;;;;;3.05;2.80;;;;;;;;;;4746586;30;20048;-88
2023/07/11 11:35:34;;;;;;;3.53;3.28;;;;;;;;;;4746151;30;20045;-90
2023/07/11 11:38:21;;;;;;;3.53;3.33;;;;;;;;;;4738234;30;20446;-86
2023/07/11 11:41:02;;;;;;;4.00;3.70;;;;;;;;;;4746676;30;20056;-91
2023/07/11 11:43:42;;;;;;;4.25;3.10;;;;;;;;;;4747598;30;20143;-90
2023/07/11 11:46:17;;;;;;;3.53;3.33;;;;;;;;;;4750925;30;20067;-89
2023/07/11 11:48:56;;;;;;;3.35;3.08;;;;;;;;;;4748819;30;20059;-90
2023/07/11 11:51:54;;;;;;;3.00;2.80;;;;;;;;;;4748985;30;20044;-89
2023/07/11 11:54:25;;;;;;;3.53;3.05;;;;;;;;;;4750382;30;20052;-88
2023/07/11 11:57:03;;;;;;;3.45;3.13;;;;;;;;;;4763743;30;20527;-90
2023/07/11 11:59:54;;;;;;;3.08;2.88;;;;;;;;;;4749116;30;20109;-92
2023/07/11 12:03:04;;;;;;;4.55;2.85;;;;;;;;;;4748551;30;20060;-91
2023/07/11 12:05:34;;;;;;;2.85;2.65;;;;;;;;;;4715113;30;20135;-89
2023/07/11 12:08:24;;;;;;;3.35;3.08;;;;;;;;;;4729555;30;20134;-91
2023/07/11 12:14:38;;;;;;;3.33;2.92;;;;;;;;;;4739670;30;20135;-90
2023/07/11 12:17:32;;;;;;;3.15;2.70;;;;;;;;;;4751181;30;20066;-90
2023/07/11 12:20:09;;;;;;;2.90;2.63;;;;;;;;;;4733106;30;20052;-91
2023/07/11 12:23:25;;;;;;;2.90;2.70;;;;;;;;;;4748402;30;20095;-89
2023/07/11 12:26:49;;;;;;;3.73;2.70;;;;;;;;;;4745282;30;20160;-91
2023/07/11 12:29:36;;;;;;;6.00;2.78;;;;;;;;;;4746154;30;20053;-90
2023/07/11 12:32:34;;;;;;;2.80;2.60;;;;;;;;;;4745115;30;20064;-90
2023/07/11 12:35:12;;;;;;;;;;;;;;;;;;;;;
2023/07/11 12:38:01;;;;;;;2.78;2.58;;;;;;;;;;4747287;30;20309;-89
2023/07/11 12:40:44;;;;;;;2.60;2.40;;;;;;;;;;4748730;30;20059;-90
2023/07/11 12:43:48;;;;;;;2.47;2.38;;;;;;;;;;4749352;30;20052;-90
2023/07/11 12:46:37;;;;;;;2.67;2.47;;;;;;;;;;4746722;30;20060;-90
2023/07/11 12:49:45;;;;;;;2.90;2.70;;;;;;;;;;4747682;30;20583;-91
2023/07/11 12:53:04;;;;;;;2.95;2.72;;;;;;;;;;4749223;30;20147;-89
2023/07/11 12:56:12;;;;;;;2.42;2.33;;;;;;;;;;4746024;30;20116;-89
2023/07/11 12:59:26;;;;;;;3.17;2.60;;;;;;;;;;4750965;30;20056;-90
2023/07/11 13:05:11;;;;;;;2.65;2.45;;;;;;;;;;4742723;30;20054;-91
2023/07/11 13:07:44;;;;;;;2.80;2.63;;;;;;;;;;4746228;30;20056;-92
2023/07/11 13:10:24;;;;;;;2.70;2.50;;;;;;;;;;4750101;30;20129;-91
2023/07/11 13:12:59;;;;;;;2.58;2.38;;;;;;;;;;4752213;30;20086;-90
2023/07/11 13:16:02;;;;;;;2.78;2.58;;;;;;;;;;4757566;30;20075;-92
2023/07/11 13:18:59;;;;;;;2.72;2.53;;;;;;;;;;4757705;30;20072;-90
2023/07/11 13:21:34;;;;;;;2.58;2.45;;;;;;;;;;4756730;30;20067;-89
2023/07/11 13:24:02;;;;;;;2.13;2.03;;;;;;;;;;4765130;30;20056;-92
2023/07/11 13:29:38;;;;;;;2.60;2.42;;;;;;;;;;4759347;30;20056;-90
2023/07/11 13:32:24;;;;;;;2.75;2.58;;;;;;;;;;4763977;30;20111;-91
2023/07/11 13:35:06;;;;;;;2.83;2.63;;;;;;;;;;4761669;30;20064;-90
2023/07/11 13:37:43;;;;;;;2.70;2.50;;;;;;;;;;4753611;30;20106;-90
2023/07/11 13:40:32;;;;;;;2.78;2.30;;;;;;;;;;4756322;30;20143;-90
2023/07/11 13:43:03;;;;;;;3.85;2.35;;;;;;;;;;4762601;30;20052;-90
2023/07/11 13:45:35;;;;;;;2.92;2.70;;;;;;;;;;4747430;30;20502;-90
2023/07/11 13:48:05;;;;;;;3.25;2.95;;;;;;;;;;4745764;30;20059;-89
2023/07/11 13:50:39;;;;;;;2.72;2.53;;;;;;;;;;4752236;30;20136;-89
2023/07/11 13:53:20;;;;;;;3.05;2.72;;;;;;;;;;4752097;30;20060;-92
2023/07/11 13:56:13;;;;;;;2.50;2.22;;;;;;;;;;4752251;30;20112;-89
2023/07/11 13:58:50;;;;;;;2.75;2.55;;;;;;;;;;4751429;30;20067;-89
2023/07/11 14:02:15;;;;;;;2.75;2.58;;;;;;;;;;4746862;30;20073;-88
2023/07/11 14:04:49;;;;;;;3.28;2.70;;;;;;;;;;4752106;30;20062;-91
2023/07/11 14:07:24;;;;;;;2.65;2.53;;;;;;;;;;4750866;30;20125;-91
2023/07/11 14:09:57;;;;;;;2.40;2.30;;;;;;;;;;4749940;30;20083;-90
2023/07/11 14:12:43;;;;;;;3.67;2.47;;;;;;;;;;4752062;30;20060;-91
2023/07/11 14:15:31;;;;;;;2.78;2.58;;;;;;;;;;4757810;30;20052;-88
2023/07/11 14:17:59;;;;;;;3.17;2.38;;;;;;;;;;4739834;30;20075;-91
2023/07/11 14:24:30;;;;;;;2.53;2.40;;;;;;;;;;4745642;30;20036;-90
2023/07/11 14:27:41;;;;;;;2.20;2.00;;;;;;;;;;4743738;30;20472;-90
2023/07/11 14:30:23;;;;;;;2.38;2.17;;;;;;;;;;4740650;30;20527;-90
2023/07/11 14:32:58;;;;;;;2.40;2.30;;;;;;;;;;4743819;30;20483;-88
2023/07/11 14:35:37;;;;;;;3.40;2.00;;;;;;;;;;4738238;30;20553;-91
2023/07/11 14:38:28;;;;;;;2.13;2.03;;;;;;;;;;4743359;30;20398;-90
2023/07/11 14:41:20;;;;;;;2.22;2.03;;;;;;;;;;4747205;30;20059;-90
2023/07/11 14:44:26;;;;;;;2.20;2.10;;;;;;;;;;4748725;30;20044;-90
2023/07/11 14:47:00;;;;;;;6.63;2.10;;;;;;;;;;4754727;30;20420;-90
2023/07/11 14:49:34;;;;;;;2.20;2.10;;;;;;;;;;4753985;30;20068;-90
2023/07/11 14:52:24;;;;;;;2.20;2.00;;;;;;;;;;4761613;30;20056;-90
2023/07/11 14:55:00;;;;;;;3.03;2.25;;;;;;;;;;4748832;30;20504;-92
2023/07/11 14:58:03;;;;;;;2.10;2.00;;;;;;;;;;4751935;30;20067;-90
2023/07/11 15:00:39;;;;;;;2.95;2.20;;;;;;;;;;4744055;30;20076;-90
2023/07/11 15:03:21;;;;;;;2.33;2.13;;;;;;;;;;4731044;30;20078;-90
2023/07/11 15:06:22;;;;;;;3.13;2.65;;;;;;;;;;4737194;30;20059;-88
2023/07/11 15:09:00;;;;;;;2.70;2.50;;;;;;;;;;4750587;30;20052;-89
2023/07/11 15:11:39;;;;;;;2.72;2.40;;;;;;;;;;4747811;30;20060;-90
2023/07/11 15:14:17;;;;;;;3.88;2.70;;;;;;;;;;4747174;30;20049;-90
2023/07/11 15:16:49;;;;;;;4.13;2.50;;;;;;;;;;4753086;30;20126;-89
2023/07/11 15:19:27;;;;;;;2.50;2.35;;;;;;;;;;4751689;30;20405;-88
2023/07/11 15:21:59;;;;;;;2.42;2.22;;;;;;;;;;4742408;30;20052;-88
2023/07/11 15:24:34;;;;;;;3.60;2.30;;;;;;;;;;4743187;30;20081;-88
2023/07/11 15:27:02;;;;;;;;;;;;;;;;;;4741512;30;20061;-89
2023/07/11 15:29:39;;;;;;;2.50;2.30;;;;;;;;;;4746645;30;19973;-90
2023/07/11 15:32:20;;;;;;;2.70;2.50;;;;;;;;;;4745983;30;20055;-90
2023/07/11 15:34:52;;;;;;;4.38;2.53;;;;;;;;;;4741034;30;20052;-89
2023/07/11 15:37:22;;;;;;;2.80;2.60;;;;;;;;;;4744968;30;20474;-89
2023/07/11 15:39:53;;;;;;;2.80;2.60;;;;;;;;;;4747546;30;20044;-89
2023/07/11 15:42:23;;;;;;;3.70;2.30;;;;;;;;;;4743788;30;20545;-88
2023/07/11 15:44:55;;;;;;;4.18;2.45;;;;;;;;;;4734278;30;20059;-89
2023/07/11 15:47:25;;;;;;;2.92;2.72;;;;;;;;;;4747137;30;20439;-89
2023/07/11 15:49:55;;;;;;;2.95;2.65;;;;;;;;;;4749390;30;20056;-89